Terminal Aerodrome Forecast
Issued by NWS

Home | Current Version | Previous Version | Text Only | Print | Product List | Glossary Off
Versions: 1 2 3 4 5 6 7 8 9 10 11 12 13 14 15 16 17 18 19 20

711
FTUS43 KOAX 281743
TAFCDR
TAF
KCDR 281743Z 2818/2918 30013G19KT P6SM SCT050 BKN070
     FM282200 32012KT P6SM VCSH BKN050
      TEMPO 2822/2902 34020G30KT 5SM -TSRA SCT030 OVC050CB
     FM290300 VRB05KT P6SM SKC=

USA.gov is the U.S. government's official web portal to all federal, state and local government web resources and services.